createdAt,value
2023-03-26T00:02:12.287Z,7.87
2023-03-26T00:05:15.602Z,7.83
2023-03-26T00:08:18.514Z,7.81
2023-03-26T00:11:23.005Z,7.75
2023-03-26T00:14:27.621Z,7.67
2023-03-26T00:17:30.847Z,7.62
2023-03-26T00:20:33.608Z,7.70
2023-03-26T00:23:37.207Z,7.65
2023-03-26T00:26:41.231Z,7.68
2023-03-26T00:29:43.964Z,7.61
2023-03-26T00:32:53.723Z,7.53
2023-03-26T00:35:59.251Z,7.42
2023-03-26T00:39:05.941Z,7.36
2023-03-26T00:42:09.003Z,7.46
2023-03-26T00:45:12.194Z,7.50
2023-03-26T00:48:15.187Z,7.48
2023-03-26T00:51:18.898Z,7.36
2023-03-26T00:54:21.670Z,7.29
2023-03-26T00:57:34.867Z,7.17
2023-03-26T01:00:48.895Z,7.15
2023-03-26T01:04:08.106Z,7.24
2023-03-26T01:07:13.764Z,7.28
2023-03-26T01:10:16.559Z,7.34
2023-03-26T01:13:24.166Z,7.39
2023-03-26T01:16:27.111Z,7.40
2023-03-26T01:19:38.895Z,7.53
2023-03-26T01:22:47.988Z,7.65
2023-03-26T01:25:58.155Z,7.82
2023-03-26T01:29:02.924Z,7.85
2023-03-26T01:32:05.443Z,7.92
2023-03-26T01:35:26.686Z,7.92
2023-03-26T01:38:48.651Z,7.98
2023-03-26T01:41:57.445Z,8.01
2023-03-26T01:45:16.251Z,8.06
2023-03-26T01:48:18.899Z,8.09
2023-03-26T01:51:29.460Z,8.18
2023-03-26T01:54:32.649Z,8.18
2023-03-26T01:57:44.744Z,8.14
2023-03-26T02:00:56.020Z,8.10
2023-03-26T02:04:02.932Z,8.00
2023-03-26T02:07:18.548Z,7.92
2023-03-26T02:10:29.094Z,7.82
2023-03-26T02:13:32.824Z,7.68
2023-03-26T02:16:35.380Z,7.64
2023-03-26T02:19:42.465Z,7.62
2023-03-26T02:22:46.307Z,7.54
2023-03-26T02:25:49.136Z,7.46
2023-03-26T02:28:51.712Z,7.39
2023-03-26T02:31:54.312Z,7.37
2023-03-26T02:34:56.913Z,7.33
2023-03-26T02:37:59.576Z,7.28
2023-03-26T02:41:03.227Z,7.15
2023-03-26T02:44:06.490Z,7.12
2023-03-26T02:47:08.896Z,7.04
2023-03-26T02:50:12.360Z,7.04
2023-03-26T02:53:15.146Z,7.03
2023-03-26T02:56:18.318Z,7.00
2023-03-26T02:59:21.014Z,6.96
2023-03-26T03:02:24.706Z,6.85
2023-03-26T03:05:28.006Z,6.75
2023-03-26T03:08:31.227Z,6.66
2023-03-26T03:11:34.322Z,6.62
2023-03-26T03:14:38.555Z,6.59
2023-03-26T03:17:42.091Z,6.57
2023-03-26T03:20:45.421Z,6.60
2023-03-26T03:23:48.623Z,6.57
2023-03-26T03:26:55.629Z,6.56
2023-03-26T03:29:59.400Z,6.50
2023-03-26T03:33:02.922Z,6.40
2023-03-26T03:36:20.420Z,6.35
2023-03-26T03:39:24.499Z,6.27
2023-03-26T03:42:27.893Z,6.15
2023-03-26T03:45:30.645Z,6.04
2023-03-26T03:48:33.982Z,5.97
2023-03-26T03:51:36.425Z,5.91
2023-03-26T03:54:38.980Z,5.83
2023-03-26T03:57:41.146Z,5.76
2023-03-26T04:00:45.329Z,5.71
2023-03-26T04:03:48.515Z,5.69
2023-03-26T04:06:51.806Z,5.65
2023-03-26T04:09:54.848Z,5.65
2023-03-26T04:12:57.976Z,5.63
2023-03-26T04:16:00.811Z,5.63
2023-03-26T04:19:04.337Z,5.59
2023-03-26T04:22:07.295Z,5.58
2023-03-26T04:25:10.380Z,5.60
2023-03-26T04:28:15.422Z,5.55
2023-03-26T04:31:24.945Z,5.50
2023-03-26T04:34:28.311Z,5.50
2023-03-26T04:37:35.253Z,5.45
2023-03-26T04:40:39.469Z,5.39
2023-03-26T04:43:47.805Z,5.42
2023-03-26T04:46:53.111Z,5.42
2023-03-26T04:49:55.878Z,5.42
2023-03-26T04:52:59.105Z,5.45
2023-03-26T04:56:14.047Z,5.43
2023-03-26T04:59:37.650Z,5.42
2023-03-26T05:02:42.165Z,5.50
2023-03-26T05:05:44.931Z,5.64
2023-03-26T05:08:48.066Z,5.90
2023-03-26T05:11:51.374Z,6.12
2023-03-26T05:14:54.056Z,6.34
2023-03-26T05:17:56.768Z,6.58
2023-03-26T05:20:59.426Z,6.91
2023-03-26T05:24:02.636Z,7.24
2023-03-26T05:27:05.667Z,7.42
2023-03-26T05:30:08.958Z,7.55
2023-03-26T05:33:11.615Z,7.65
2023-03-26T05:36:15.693Z,7.84
2023-03-26T05:39:18.550Z,8.12
2023-03-26T05:42:21.274Z,8.56
2023-03-26T05:45:23.631Z,8.88
2023-03-26T05:48:26.776Z,8.93
2023-03-26T05:51:29.229Z,9.42
2023-03-26T05:54:31.704Z,9.79
2023-03-26T05:57:35.820Z,10.12
2023-03-26T06:00:38.918Z,10.40
2023-03-26T06:03:41.616Z,10.24
2023-03-26T06:06:45.342Z,10.55
2023-03-26T06:09:47.761Z,11.41
2023-03-26T06:12:50.787Z,12.23
2023-03-26T06:15:53.555Z,13.07
2023-03-26T06:18:57.402Z,15.77
2023-03-26T06:21:59.892Z,19.12
2023-03-26T06:25:02.575Z,20.51
2023-03-26T06:28:06.352Z,21.13
2023-03-26T06:31:09.714Z,21.92
2023-03-26T06:34:12.738Z,21.79
2023-03-26T06:37:16.041Z,19.26
2023-03-26T06:40:19.167Z,17.78
2023-03-26T06:43:21.919Z,19.75
2023-03-26T06:46:25.726Z,22.86
2023-03-26T06:49:28.471Z,25.15
2023-03-26T06:52:31.554Z,25.36
2023-03-26T06:55:34.128Z,24.33
2023-03-26T06:58:36.748Z,25.35
2023-03-26T07:01:39.288Z,26.25
2023-03-26T07:04:41.912Z,26.75
2023-03-26T07:07:46.804Z,26.36
2023-03-26T07:10:49.605Z,27.09
2023-03-26T07:13:52.114Z,27.86
2023-03-26T07:16:54.668Z,28.23
2023-03-26T07:19:59.046Z,27.72
2023-03-26T07:23:02.079Z,22.26
2023-03-26T07:26:23.665Z,18.70
2023-03-26T07:29:34.217Z,17.80
2023-03-26T07:32:41.086Z,18.49
2023-03-26T07:36:04.182Z,20.10
2023-03-26T07:39:06.729Z,20.92
2023-03-26T07:42:29.588Z,19.62
2023-03-26T07:45:40.669Z,17.45
2023-03-26T07:48:44.860Z,16.50
2023-03-26T07:51:48.147Z,15.85
2023-03-26T07:54:51.251Z,15.26
2023-03-26T07:58:01.706Z,15.24
2023-03-26T08:01:07.631Z,15.48
2023-03-26T08:04:23.165Z,15.72
2023-03-26T08:07:37.892Z,16.00
2023-03-26T08:10:49.833Z,15.93
2023-03-26T08:13:57.387Z,15.57
2023-03-26T08:17:10.448Z,15.16
2023-03-26T08:20:31.493Z,14.74
2023-03-26T08:23:34.035Z,14.93
2023-03-26T08:26:44.525Z,14.95
2023-03-26T08:30:05.688Z,14.98
2023-03-26T08:33:14.549Z,15.04
2023-03-26T08:36:17.008Z,15.24
2023-03-26T08:39:20.433Z,15.37
2023-03-26T08:42:54.753Z,15.34
2023-03-26T08:45:57.814Z,15.41
2023-03-26T08:49:13.424Z,15.38
2023-03-26T08:52:28.317Z,15.34
2023-03-26T08:55:57.481Z,15.28
2023-03-26T08:59:18.624Z,15.07
2023-03-26T09:02:27.140Z,15.37
2023-03-26T09:05:44.990Z,15.83
2023-03-26T09:09:06.000Z,16.46
2023-03-26T09:12:36.204Z,16.73
2023-03-26T09:16:08.513Z,16.64
2023-03-26T09:19:37.100Z,16.40
2023-03-26T09:22:42.483Z,16.11
2023-03-26T09:26:02.153Z,16.05
2023-03-26T09:29:17.593Z,15.90
2023-03-26T09:32:38.663Z,16.00
2023-03-26T09:35:50.537Z,16.76
2023-03-26T09:38:59.046Z,17.20
2023-03-26T09:42:17.778Z,17.50
2023-03-26T09:45:21.208Z,17.13
2023-03-26T09:48:42.102Z,16.85
2023-03-26T09:51:44.611Z,16.40
2023-03-26T09:54:57.426Z,16.39
2023-03-26T09:58:12.082Z,16.39
2023-03-26T10:01:18.834Z,16.22
2023-03-26T10:04:33.658Z,15.85
2023-03-26T10:07:48.218Z,15.96
2023-03-26T10:10:51.263Z,15.88
2023-03-26T10:14:12.301Z,15.94
2023-03-26T10:17:26.662Z,15.82
2023-03-26T10:20:49.509Z,15.85
2023-03-26T10:23:53.328Z,15.66
2023-03-26T10:27:14.130Z,15.26
2023-03-26T10:30:38.417Z,14.83
2023-03-26T10:33:46.857Z,13.43
2023-03-26T10:36:57.038Z,11.85
2023-03-26T10:40:14.240Z,10.64
2023-03-26T10:43:28.344Z,10.04
2023-03-26T10:46:39.494Z,10.40
2023-03-26T10:49:53.806Z,11.01
2023-03-26T10:53:10.374Z,11.14
2023-03-26T10:56:21.888Z,11.59
2023-03-26T10:59:27.052Z,12.27
2023-03-26T11:02:40.997Z,12.77
2023-03-26T11:06:02.904Z,12.78
2023-03-26T11:09:08.077Z,12.86
2023-03-26T11:12:25.463Z,12.90
2023-03-26T11:15:36.416Z,12.87
2023-03-26T11:18:38.410Z,12.78
2023-03-26T11:22:12.665Z,12.62
2023-03-26T11:25:23.747Z,12.49
2023-03-26T11:28:31.693Z,12.63
2023-03-26T11:31:33.703Z,13.03
2023-03-26T11:34:40.540Z,13.17
2023-03-26T11:37:43.853Z,13.28
2023-03-26T11:40:50.938Z,13.18
2023-03-26T11:44:05.943Z,13.20
2023-03-26T11:47:10.583Z,13.44
2023-03-26T11:50:27.273Z,14.03
2023-03-26T11:53:31.462Z,14.54
2023-03-26T11:56:36.085Z,14.74
2023-03-26T11:59:55.724Z,14.87
2023-03-26T12:02:59.757Z,15.27
2023-03-26T12:06:03.149Z,15.03
2023-03-26T12:09:16.995Z,14.77
2023-03-26T12:12:19.995Z,14.82
2023-03-26T12:15:22.799Z,14.88
2023-03-26T12:18:26.729Z,15.25
2023-03-26T12:21:29.870Z,15.43
2023-03-26T12:24:36.472Z,15.75
2023-03-26T12:27:43.236Z,16.12
2023-03-26T12:30:59.963Z,16.81
2023-03-26T12:34:15.549Z,17.09
2023-03-26T12:37:38.185Z,16.94
2023-03-26T12:40:42.709Z,16.79
2023-03-26T12:44:55.268Z,16.99
2023-03-26T12:47:55.305Z,16.89
2023-03-26T12:50:53.483Z,17.10
2023-03-26T12:54:05.966Z,17.20
2023-03-26T12:57:27.034Z,16.89
2023-03-26T13:00:36.280Z,16.65
2023-03-26T13:03:44.740Z,16.57
2023-03-26T13:07:00.392Z,16.33
2023-03-26T13:10:23.627Z,16.30
2023-03-26T13:13:32.703Z,16.43
2023-03-26T13:16:54.175Z,16.50
2023-03-26T13:19:57.221Z,16.62
2023-03-26T13:23:09.564Z,16.87
2023-03-26T13:26:27.197Z,17.04
2023-03-26T13:29:42.766Z,17.13
2023-03-26T13:32:46.093Z,16.94
2023-03-26T13:35:51.646Z,17.19
2023-03-26T13:39:00.756Z,17.60
2023-03-26T13:42:16.183Z,17.78
2023-03-26T13:45:38.376Z,17.67
2023-03-26T13:48:50.982Z,17.46
2023-03-26T13:51:57.176Z,17.22
2023-03-26T13:55:05.560Z,16.95
2023-03-26T13:58:11.582Z,16.91
2023-03-26T14:01:34.534Z,17.02
2023-03-26T14:04:44.641Z,17.19
2023-03-26T14:07:50.911Z,17.05
2023-03-26T14:10:57.590Z,17.02
2023-03-26T14:14:23.238Z,17.10
2023-03-26T14:17:29.009Z,17.19
2023-03-26T14:20:56.930Z,17.04
2023-03-26T14:24:18.016Z,17.14
2023-03-26T14:27:29.773Z,16.93
2023-03-26T14:30:55.043Z,17.06
2023-03-26T14:34:24.068Z,17.14
2023-03-26T14:37:29.750Z,17.37
2023-03-26T14:40:41.509Z,17.43
2023-03-26T14:43:43.821Z,17.46
2023-03-26T14:46:50.132Z,17.30
2023-03-26T14:50:04.760Z,17.16
2023-03-26T14:53:13.992Z,16.98
2023-03-26T14:56:27.550Z,16.77
2023-03-26T14:59:48.631Z,16.64
2023-03-26T15:03:10.481Z,16.55
2023-03-26T15:06:48.300Z,16.43
2023-03-26T15:10:09.394Z,16.42
2023-03-26T15:13:31.066Z,16.33
2023-03-26T15:16:48.817Z,16.31
2023-03-26T15:19:51.121Z,16.22
2023-03-26T15:23:12.449Z,16.15
2023-03-26T15:26:37.505Z,16.11
2023-03-26T15:29:54.758Z,16.08
2023-03-26T15:33:12.675Z,15.99
2023-03-26T15:36:34.754Z,15.98
2023-03-26T15:40:08.057Z,16.02
2023-03-26T15:43:15.474Z,16.00
2023-03-26T15:46:36.976Z,16.01
2023-03-26T15:49:46.093Z,16.08
2023-03-26T15:52:58.032Z,16.14
2023-03-26T15:56:18.137Z,16.12
2023-03-26T15:59:37.104Z,16.02
2023-03-26T16:03:00.107Z,15.91
2023-03-26T16:06:16.173Z,15.79
2023-03-26T16:09:32.798Z,15.72
2023-03-26T16:12:47.942Z,15.53
2023-03-26T16:16:11.414Z,15.43
2023-03-26T16:19:20.444Z,15.34
2023-03-26T16:22:42.539Z,15.19
2023-03-26T16:25:57.876Z,15.04
2023-03-26T16:29:06.462Z,14.94
2023-03-26T16:32:09.368Z,14.74
2023-03-26T16:35:15.024Z,14.62
2023-03-26T16:38:19.642Z,14.48
2023-03-26T16:41:26.792Z,14.35
2023-03-26T16:44:50.516Z,14.34
2023-03-26T16:48:16.210Z,14.28
2023-03-26T16:51:37.317Z,14.18
2023-03-26T16:54:49.286Z,14.07
2023-03-26T16:57:56.781Z,13.90
2023-03-26T17:01:11.587Z,13.79
2023-03-26T17:04:23.510Z,13.63
2023-03-26T17:07:44.711Z,13.63
2023-03-26T17:10:47.216Z,13.49
2023-03-26T17:14:08.246Z,13.42
2023-03-26T17:17:29.314Z,13.49
2023-03-26T17:20:36.104Z,13.36
2023-03-26T17:23:48.046Z,13.21
2023-03-26T17:26:50.624Z,13.18
2023-03-26T17:30:04.669Z,13.19
2023-03-26T17:33:13.682Z,13.18
2023-03-26T17:36:40.499Z,13.17
2023-03-26T17:39:43.688Z,13.14
2023-03-26T17:43:01.681Z,13.21
2023-03-26T17:46:06.439Z,13.33
2023-03-26T17:49:14.682Z,13.33
2023-03-26T17:52:21.418Z,13.35
2023-03-26T17:55:31.501Z,13.23
2023-03-26T17:58:42.918Z,13.18
2023-03-26T18:01:48.277Z,13.10
2023-03-26T18:04:54.317Z,13.00
2023-03-26T18:07:57.179Z,12.94
2023-03-26T18:11:18.144Z,12.96
2023-03-26T18:14:35.271Z,12.95
2023-03-26T18:17:43.626Z,12.93
2023-03-26T18:20:47.488Z,12.91
2023-03-26T18:23:50.968Z,12.89
2023-03-26T18:26:58.943Z,12.86
2023-03-26T18:30:02.982Z,12.82
2023-03-26T18:33:15.762Z,12.78
2023-03-26T18:36:20.019Z,12.75
2023-03-26T18:39:22.374Z,12.70
2023-03-26T18:42:25.395Z,12.70
2023-03-26T18:45:39.208Z,12.83
2023-03-26T18:48:41.944Z,12.74
2023-03-26T18:51:56.240Z,12.77
2023-03-26T18:54:59.980Z,12.76
2023-03-26T18:58:10.671Z,12.70
2023-03-26T19:01:23.841Z,12.70
2023-03-26T19:04:31.308Z,12.65
2023-03-26T19:07:35.811Z,12.60
2023-03-26T19:10:38.363Z,12.51
2023-03-26T19:13:42.113Z,12.41
2023-03-26T19:16:56.666Z,12.24
2023-03-26T19:19:59.187Z,12.07
2023-03-26T19:23:01.547Z,11.86
2023-03-26T19:26:05.528Z,11.76
2023-03-26T19:29:12.276Z,11.66
2023-03-26T19:32:40.778Z,11.77
2023-03-26T19:35:44.729Z,11.82
2023-03-26T19:38:49.865Z,11.83
2023-03-26T19:41:52.922Z,11.94
2023-03-26T19:44:56.751Z,11.95
2023-03-26T19:48:14.378Z,11.87
2023-03-26T19:51:22.396Z,11.83
2023-03-26T19:54:25.467Z,11.81
2023-03-26T19:57:32.358Z,11.84
2023-03-26T20:00:34.936Z,11.79
2023-03-26T20:03:39.639Z,11.78
2023-03-26T20:06:44.141Z,11.76
2023-03-26T20:09:46.902Z,11.75
2023-03-26T20:12:54.831Z,11.72
2023-03-26T20:16:18.818Z,11.67
2023-03-26T20:19:21.339Z,11.63
2023-03-26T20:22:24.932Z,11.70
2023-03-26T20:25:31.157Z,11.68
2023-03-26T20:28:42.432Z,11.67
2023-03-26T20:31:50.568Z,11.65
2023-03-26T20:34:53.070Z,11.64
2023-03-26T20:37:55.394Z,11.65
2023-03-26T20:40:58.564Z,11.57
2023-03-26T20:44:01.335Z,11.57
2023-03-26T20:47:04.230Z,11.53
2023-03-26T20:50:07.086Z,11.56
2023-03-26T20:53:14.377Z,11.55
2023-03-26T20:56:18.051Z,11.60
2023-03-26T20:59:22.476Z,11.56
2023-03-26T21:02:25.975Z,11.55
2023-03-26T21:05:29.708Z,11.51
2023-03-26T21:08:35.212Z,11.62
2023-03-26T21:11:41.576Z,11.68
2023-03-26T21:14:44.538Z,11.55
2023-03-26T21:17:47.304Z,11.57
2023-03-26T21:20:58.646Z,11.52
2023-03-26T21:24:14.567Z,11.61
2023-03-26T21:27:20.724Z,11.56
2023-03-26T21:30:24.016Z,11.52
2023-03-26T21:33:27.827Z,11.49
2023-03-26T21:36:30.645Z,11.52
2023-03-26T21:39:33.605Z,11.38
2023-03-26T21:42:36.267Z,11.13
2023-03-26T21:45:39.435Z,10.86
2023-03-26T21:48:42.799Z,10.73
2023-03-26T21:51:45.582Z,10.62
2023-03-26T21:54:48.666Z,10.65
2023-03-26T21:58:12.573Z,10.67
2023-03-26T22:01:20.807Z,10.66
2023-03-26T22:04:37.063Z,10.64
2023-03-26T22:07:48.452Z,10.65
2023-03-26T22:10:50.905Z,10.66
2023-03-26T22:13:53.616Z,10.55
2023-03-26T22:16:56.294Z,10.49
2023-03-26T22:19:58.844Z,10.43
2023-03-26T22:23:02.295Z,10.30
2023-03-26T22:26:05.540Z,10.12
2023-03-26T22:29:07.767Z,9.93
2023-03-26T22:32:10.129Z,9.68
2023-03-26T22:35:13.062Z,9.48
2023-03-26T22:38:17.049Z,9.42
2023-03-26T22:41:19.178Z,9.24
2023-03-26T22:44:21.627Z,9.09
2023-03-26T22:47:23.681Z,8.91
2023-03-26T22:50:26.081Z,8.81
2023-03-26T22:53:28.268Z,8.59
2023-03-26T22:56:30.590Z,8.68
2023-03-26T22:59:32.465Z,8.60
2023-03-26T23:02:34.346Z,8.49
2023-03-26T23:05:36.295Z,8.48
2023-03-26T23:08:38.890Z,8.48
2023-03-26T23:11:41.147Z,8.45
2023-03-26T23:14:43.594Z,8.41
2023-03-26T23:17:45.670Z,8.43
2023-03-26T23:20:57.920Z,8.43
2023-03-26T23:24:00.042Z,8.38
2023-03-26T23:27:01.995Z,8.44
2023-03-26T23:30:04.289Z,8.41
2023-03-26T23:33:06.377Z,8.51
2023-03-26T23:36:09.135Z,8.51
2023-03-26T23:39:11.322Z,8.57
2023-03-26T23:42:13.291Z,8.60
2023-03-26T23:45:16.524Z,8.49
2023-03-26T23:48:22.379Z,8.49
2023-03-26T23:51:24.391Z,8.27
2023-03-26T23:54:26.797Z,8.13
2023-03-26T23:57:29.153Z,8.10
